Time;durP1;ratioP1;P1;durP2;ratioP2;P2;SDS_P1;SDS_P2;PMS_P1;PMS_P2;Temp;Humidity;BMP_temperature;BMP_pressure;BME280_temperature;BME280_humidity;BME280_pressure;Samples;Min_cycle;Max_cycle;Signal;HPM_P1;HPM_P2
2022/09/07 00:01:40;;;;;;;16.10;11.02;;;17.90;99.90;;;;;;5092003;27;20032;-44
2022/09/07 00:04:06;;;;;;;14.77;11.73;;;17.80;99.90;;;;;;5093195;27;20039;-47
2022/09/07 00:06:33;;;;;;;15.10;13.48;;;17.70;99.90;;;;;;5094237;28;20520;-44
2022/09/07 00:09:00;;;;;;;14.63;12.98;;;17.70;99.90;;;;;;5095180;28;20055;-44
2022/09/07 00:11:27;;;;;;;16.48;13.45;;;17.50;99.90;;;;;;5093777;27;20040;-44
2022/09/07 00:13:53;;;;;;;18.83;13.73;;;17.50;99.90;;;;;;5093530;28;20048;-45
2022/09/07 00:16:28;;;;;;;18.48;13.75;;;17.60;99.90;;;;;;5092587;27;20046;-46
2022/09/07 00:18:56;;;;;;;16.55;13.60;;;17.40;99.90;;;;;;5093503;28;20051;-43
2022/09/07 00:21:22;;;;;;;15.52;13.10;;;17.50;99.90;;;;;;5092035;27;20096;-44
2022/09/07 00:23:49;;;;;;;14.13;12.38;;;17.50;99.90;;;;;;5094572;27;20052;-45
2022/09/07 00:26:24;;;;;;;17.98;14.48;;;17.40;99.90;;;;;;5093600;27;20035;-45
2022/09/07 00:28:50;;;;;;;14.20;12.80;;;17.40;99.90;;;;;;5094760;28;20108;-43
2022/09/07 00:31:19;;;;;;;16.20;12.30;;;17.20;99.90;;;;;;5093028;27;20050;-45
2022/09/07 00:33:47;;;;;;;16.88;13.65;;;17.20;99.90;;;;;;5095300;27;20455;-44
2022/09/07 00:36:12;;;;;;;19.48;14.52;;;17.40;99.90;;;;;;5093849;28;20047;-43
2022/09/07 00:38:38;;;;;;;17.60;13.20;;;17.20;99.90;;;;;;5093411;27;20487;-47
2022/09/07 00:41:04;;;;;;;18.60;15.48;;;17.20;99.90;;;;;;5093244;27;20054;-44
2022/09/07 00:43:40;;;;;;;17.98;13.60;;;17.20;99.90;;;;;;5095252;27;20051;-48
2022/09/07 00:46:11;;;;;;;16.85;13.80;;;17.30;99.90;;;;;;5093987;28;20130;-48
2022/09/07 00:49:00;;;;;;;15.47;12.93;;;17.20;99.90;;;;;;5092739;27;20051;-45
2022/09/07 00:51:32;;;;;;;13.45;11.70;;;17.20;99.90;;;;;;5093614;28;20101;-45
2022/09/07 00:54:01;;;;;;;;;;;17.30;99.90;;;;;;5093905;28;20045;-48
2022/09/07 00:56:38;;;;;;;15.50;12.57;;;17.20;99.90;;;;;;5093491;28;20482;-44
2022/09/07 00:59:05;;;;;;;14.35;12.95;;;17.40;99.90;;;;;;5092608;28;20198;-44
2022/09/07 01:01:32;;;;;;;16.23;13.23;;;17.40;99.90;;;;;;5093058;28;20061;-45
2022/09/07 01:04:00;;;;;;;16.95;15.25;;;17.40;99.90;;;;;;5092233;28;20675;-44
2022/09/07 01:06:30;;;;;;;18.05;15.95;;;17.20;99.90;;;;;;5093324;28;20136;-49
2022/09/07 01:09:01;;;;;;;26.40;14.85;;;17.20;99.90;;;;;;5094958;27;20135;-45
2022/09/07 01:11:29;;;;;;;17.43;15.63;;;17.20;99.90;;;;;;5092396;28;20684;-45
2022/09/07 01:13:56;;;;;;;18.75;15.93;;;17.10;99.90;;;;;;5092400;28;20630;-45
2022/09/07 01:16:41;;;;;;;18.20;16.30;;;17.20;99.90;;;;;;5092188;28;20420;-43
2022/09/07 01:19:25;;;;;;;19.35;15.32;;;17.10;99.90;;;;;;5092495;28;20047;-45
2022/09/07 01:22:15;;;;;;;19.35;15.35;;;17.10;99.90;;;;;;5094283;28;20105;-45
2022/09/07 01:24:52;;;;;;;19.40;17.42;;;17.10;99.90;;;;;;5093643;28;20039;-44
2022/09/07 01:27:43;;;;;;;19.02;16.92;;;17.20;99.90;;;;;;5092816;28;20037;-44
2022/09/07 01:30:10;;;;;;;21.00;15.30;;;16.90;99.90;;;;;;5092801;28;20039;-45
2022/09/07 01:32:57;;;;;;;20.05;16.02;;;17.30;99.90;;;;;;5093898;28;20373;-45
2022/09/07 01:35:41;;;;;;;26.33;17.90;;;16.90;99.90;;;;;;5093790;28;20046;-48
2022/09/07 01:38:33;;;;;;;25.23;17.75;;;16.90;99.90;;;;;;5094963;28;20036;-48
2022/09/07 01:41:17;;;;;;;30.52;19.55;;;16.70;99.90;;;;;;5094698;28;20036;-44
2022/09/07 01:43:56;;;;;;;25.15;18.17;;;16.40;99.90;;;;;;5092574;28;20050;-44
2022/09/07 01:46:27;;;;;;;25.77;17.15;;;16.60;99.90;;;;;;5093844;28;20039;-49
2022/09/07 01:48:57;;;;;;;16.15;11.85;;;16.50;99.90;;;;;;5093641;28;20116;-45
2022/09/07 01:51:29;;;;;;;14.50;11.60;;;16.50;99.90;;;;;;5091993;28;20055;-45
2022/09/07 01:54:02;;;;;;;16.23;10.60;;;16.60;99.90;;;;;;5093840;28;20040;-46
2022/09/07 01:56:36;;;;;;;14.00;9.10;;;16.70;99.90;;;;;;5110527;27;20457;-44
2022/09/07 01:59:16;;;;;;;15.13;9.45;;;16.50;99.90;;;;;;5093441;28;20393;-45
2022/09/07 02:01:54;;;;;;;11.38;8.18;;;14.80;99.90;;;;;;5093892;28;20043;-46
2022/09/07 02:04:30;;;;;;;16.02;9.60;;;16.70;99.90;;;;;;5094210;28;20035;-45
2022/09/07 02:07:00;;;;;;;11.23;8.02;;;16.50;99.90;;;;;;5093603;28;20036;-44
2022/09/07 02:09:48;;;;;;;14.73;8.65;;;16.60;99.90;;;;;;5094956;28;20388;-45
2022/09/07 02:12:23;;;;;;;19.95;10.32;;;16.50;99.90;;;;;;5093380;28;20053;-47
2022/09/07 02:14:55;;;;;;;16.63;10.63;;;16.60;99.90;;;;;;5095493;28;20047;-47
2022/09/07 02:17:28;;;;;;;11.30;8.32;;;16.60;99.90;;;;;;5096350;28;20154;-49
2022/09/07 02:20:05;;;;;;;12.77;9.13;;;16.60;99.90;;;;;;5096430;27;20044;-44
2022/09/07 02:22:35;;;;;;;11.88;8.90;;;16.60;99.90;;;;;;5096753;27;20044;-45
2022/09/07 02:25:04;;;;;;;18.88;10.00;;;16.70;99.90;;;;;;5096632;27;20040;-47
2022/09/07 02:27:46;;;;;;;17.77;11.18;;;16.60;99.90;;;;;;5096312;27;20408;-48
2022/09/07 02:30:13;;;;;;;13.60;9.70;;;16.40;99.90;;;;;;5095181;27;20039;-47
2022/09/07 02:32:38;;;;;;;14.85;9.85;;;16.40;99.90;;;;;;5096614;27;20039;-44
2022/09/07 02:35:05;;;;;;;14.55;10.65;;;16.60;99.90;;;;;;5096044;27;20403;-45
2022/09/07 02:37:32;;;;;;;14.93;10.20;;;16.60;99.90;;;;;;5095874;27;20286;-44
2022/09/07 02:39:59;;;;;;;15.70;10.98;;;16.60;99.90;;;;;;5097197;27;20035;-47
2022/09/07 02:42:30;;;;;;;13.88;9.57;;;16.60;99.90;;;;;;5095736;27;20051;-45
2022/09/07 02:44:56;;;;;;;11.65;9.10;;;16.50;99.90;;;;;;5096109;28;20075;-45
2022/09/07 02:47:59;;;;;;;13.48;10.45;;;16.30;99.90;;;;;;5095403;27;20153;-47
2022/09/07 02:50:39;;;;;;;16.02;10.52;;;16.50;99.90;;;;;;5094830;27;20052;-45
2022/09/07 02:53:38;;;;;;;18.52;10.70;;;16.70;99.90;;;;;;5095983;27;20428;-46
2022/09/07 02:56:12;;;;;;;17.17;10.45;;;16.50;99.90;;;;;;5094817;27;20039;-46
2022/09/07 02:58:43;;;;;;;13.20;10.23;;;16.40;99.90;;;;;;5095634;27;21057;-44
2022/09/07 03:01:34;;;;;;;10.43;9.25;;;16.50;99.90;;;;;;5095405;27;20041;-46
2022/09/07 03:04:10;;;;;;;14.07;9.38;;;16.70;99.90;;;;;;5095127;27;20063;-45
2022/09/07 03:06:44;;;;;;;12.52;9.40;;;16.50;99.90;;;;;;5095437;27;20071;-45
2022/09/07 03:09:15;;;;;;;12.32;8.93;;;16.50;99.90;;;;;;5097381;27;20418;-45
2022/09/07 03:11:42;;;;;;;10.33;8.40;;;18.60;99.90;;;;;;5096319;27;20066;-43
2022/09/07 03:14:10;;;;;;;12.38;9.88;;;16.50;99.90;;;;;;5096076;27;20282;-44
2022/09/07 03:16:36;;;;;;;15.35;8.73;;;16.70;99.90;;;;;;5094391;27;20035;-47
2022/09/07 03:19:03;;;;;;;11.07;8.13;;;16.50;99.90;;;;;;5095365;28;20043;-50
2022/09/07 03:21:30;;;;;;;12.25;9.32;;;16.50;99.90;;;;;;5094794;28;20104;-49
2022/09/07 03:23:56;;;;;;;12.40;8.82;;;16.50;99.90;;;;;;5095028;27;20180;-44
2022/09/07 03:26:26;;;;;;;12.23;9.00;;;16.70;99.90;;;;;;5095850;27;20036;-47
2022/09/07 03:28:52;;;;;;;15.07;10.40;;;18.80;99.90;;;;;;5094942;28;20032;-45
2022/09/07 03:31:18;;;;;;;14.63;9.88;;;16.50;99.90;;;;;;5095079;27;20034;-46
2022/09/07 03:33:44;;;;;;;15.25;9.43;;;16.70;99.90;;;;;;5094762;27;20039;-48
2022/09/07 03:36:09;;;;;;;12.45;9.70;;;16.70;99.90;;;;;;5094980;27;21666;-45
2022/09/07 03:38:35;;;;;;;16.20;10.38;;;16.40;99.90;;;;;;5094304;28;20038;-47
2022/09/07 03:41:06;;;;;;;13.80;9.27;;;16.60;99.90;;;;;;5095920;27;20407;-49
2022/09/07 03:43:32;;;;;;;14.68;9.32;;;16.60;99.90;;;;;;5094529;27;20031;-46
2022/09/07 03:46:05;;;;;;;14.00;9.68;;;16.60;99.90;;;;;;5095207;28;20518;-47
2022/09/07 03:48:33;;;;;;;14.63;9.50;;;16.40;99.90;;;;;;5093952;27;20059;-45
2022/09/07 03:51:02;;;;;;;15.30;9.13;;;16.80;99.90;;;;;;5094212;27;20055;-44
2022/09/07 03:53:38;;;;;;;12.63;9.15;;;16.70;99.90;;;;;;5094786;27;20097;-45
2022/09/07 03:56:10;;;;;;;12.15;9.35;;;16.80;99.90;;;;;;5093666;27;20130;-47
2022/09/07 03:58:36;;;;;;;14.13;10.38;;;16.80;99.90;;;;;;5093602;27;20126;-45
2022/09/07 04:01:10;;;;;;;14.38;9.60;;;16.60;99.90;;;;;;5093696;27;20510;-49
2022/09/07 04:03:36;;;;;;;13.27;9.95;;;16.50;99.90;;;;;;5093030;27;20044;-49
2022/09/07 04:06:03;;;;;;;12.30;9.27;;;16.80;99.90;;;;;;5093992;27;20039;-43
2022/09/07 04:08:30;;;;;;;13.43;9.70;;;16.60;99.90;;;;;;5095946;27;20039;-44
2022/09/07 04:10:57;;;;;;;12.20;8.98;;;16.50;99.90;;;;;;5094274;27;20079;-49
2022/09/07 04:13:24;;;;;;;12.73;10.07;;;18.10;99.90;;;;;;5094219;27;20036;-44
2022/09/07 04:15:50;;;;;;;9.20;8.20;;;16.40;99.90;;;;;;5093828;27;20881;-45
2022/09/07 04:18:16;;;;;;;12.13;8.30;;;16.50;99.90;;;;;;5093651;27;20145;-47
2022/09/07 04:20:43;;;;;;;12.63;8.57;;;16.60;99.90;;;;;;5094760;27;20042;-46
2022/09/07 04:23:09;;;;;;;11.63;9.02;;;16.50;99.90;;;;;;5093483;28;20047;-49
2022/09/07 04:25:34;;;;;;;13.40;9.23;;;16.40;99.90;;;;;;5093921;27;20780;-50
2022/09/07 04:28:00;;;;;;;10.80;8.60;;;16.40;99.90;;;;;;5094690;27;20050;-45
2022/09/07 04:30:26;;;;;;;13.07;8.07;;;16.40;99.90;;;;;;5095052;28;20046;-44
2022/09/07 04:32:52;;;;;;;10.75;7.90;;;16.50;99.90;;;;;;5094529;27;20382;-48
2022/09/07 04:35:18;;;;;;;11.75;7.47;;;16.60;99.90;;;;;;5093931;27;20500;-45
2022/09/07 04:37:44;;;;;;;9.57;8.10;;;16.40;99.90;;;;;;5093531;28;20089;-46
2022/09/07 04:40:10;;;;;;;11.88;7.90;;;16.50;99.90;;;;;;5095587;27;20066;-46
2022/09/07 04:42:35;;;;;;;10.10;8.38;;;16.50;99.90;;;;;;5093452;27;20392;-50
2022/09/07 04:45:02;;;;;;;10.27;8.43;;;16.40;99.90;;;;;;5093545;28;20055;-49
2022/09/07 04:47:29;;;;;;;15.60;8.50;;;16.30;99.90;;;;;;5093309;27;20086;-48
2022/09/07 04:49:55;;;;;;;11.85;8.75;;;16.30;99.90;;;;;;5093821;28;20055;-50
2022/09/07 04:52:22;;;;;;;10.02;7.70;;;16.30;99.90;;;;;;5091787;28;20039;-48
2022/09/07 04:54:49;;;;;;;11.65;8.40;;;16.20;99.90;;;;;;5093449;28;20036;-46
2022/09/07 04:57:17;;;;;;;12.63;8.73;;;16.20;99.90;;;;;;5092807;28;20194;-49
2022/09/07 04:59:42;;;;;;;11.48;8.52;;;16.30;99.90;;;;;;5092224;27;20131;-46
2022/09/07 05:02:08;;;;;;;9.60;7.82;;;16.20;99.90;;;;;;5093484;27;20040;-44
2022/09/07 05:04:35;;;;;;;10.20;7.65;;;16.20;99.90;;;;;;5092565;28;20406;-45
2022/09/07 05:07:01;;;;;;;9.68;7.80;;;16.10;99.90;;;;;;5092622;28;20044;-45
2022/09/07 05:09:26;;;;;;;11.23;7.93;;;16.20;99.90;;;;;;5093574;28;20446;-48
2022/09/07 05:11:52;;;;;;;10.55;7.82;;;16.10;99.90;;;;;;5093642;28;20035;-48
2022/09/07 05:14:19;;;;;;;9.90;7.30;;;16.10;99.90;;;;;;5093396;28;20132;-46
2022/09/07 05:16:45;;;;;;;10.65;8.40;;;16.10;99.90;;;;;;5092538;28;20464;-46
2022/09/07 05:19:12;;;;;;;11.77;7.80;;;16.00;99.90;;;;;;5092654;28;20510;-46
2022/09/07 05:21:38;;;;;;;12.98;9.85;;;16.30;99.90;;;;;;5093417;28;20051;-45
2022/09/07 05:24:04;;;;;;;9.98;8.50;;;16.20;99.90;;;;;;5089461;28;20042;-49
2022/09/07 05:26:33;;;;;;;13.70;9.02;;;16.20;99.90;;;;;;5091861;28;20082;-46
2022/09/07 05:29:04;;;;;;;11.35;9.32;;;16.10;99.90;;;;;;5091779;28;20051;-48
2022/09/07 05:31:30;;;;;;;11.23;8.93;;;16.10;99.90;;;;;;5091807;28;20419;-45
2022/09/07 05:33:56;;;;;;;10.68;8.82;;;16.20;99.90;;;;;;5091711;28;20043;-45
2022/09/07 05:36:26;;;;;;;13.18;9.20;;;16.20;99.90;;;;;;5093649;28;20051;-47
2022/09/07 05:38:57;;;;;;;11.30;8.70;;;16.20;99.90;;;;;;5094204;27;20051;-47
2022/09/07 05:41:24;;;;;;;11.73;8.77;;;16.20;99.90;;;;;;5094402;28;20377;-49
2022/09/07 05:43:51;;;;;;;14.18;9.73;;;16.10;99.90;;;;;;5093223;28;20058;-48
2022/09/07 05:46:17;;;;;;;11.50;9.52;;;16.20;99.90;;;;;;5093392;28;20043;-45
2022/09/07 05:48:43;;;;;;;15.32;11.05;;;16.20;99.90;;;;;;5093421;28;20040;-47
2022/09/07 05:51:10;;;;;;;12.02;10.23;;;16.20;99.90;;;;;;5096748;27;20043;-45
2022/09/07 05:53:37;;;;;;;17.77;10.60;;;16.30;99.90;;;;;;5096605;27;20155;-48
2022/09/07 05:56:05;;;;;;;15.48;11.43;;;16.20;99.90;;;;;;5097049;27;20758;-49
2022/09/07 05:58:31;;;;;;;15.50;12.65;;;16.30;99.90;;;;;;5097348;27;20034;-46
2022/09/07 06:00:58;;;;;;;14.75;13.15;;;16.40;99.90;;;;;;5097418;27;20123;-48
2022/09/07 06:03:24;;;;;;;18.20;13.30;;;16.30;99.90;;;;;;5096855;27;20043;-47
2022/09/07 06:06:02;;;;;;;18.02;14.75;;;16.40;99.90;;;;;;5096930;27;20032;-47
2022/09/07 06:08:30;;;;;;;21.75;14.80;;;16.30;99.90;;;;;;5097900;27;20761;-47
2022/09/07 06:10:56;;;;;;;17.92;13.60;;;16.40;99.90;;;;;;5096827;28;20040;-48
2022/09/07 06:13:21;;;;;;;19.27;15.50;;;16.50;99.90;;;;;;5095822;27;20054;-48
2022/09/07 06:15:47;;;;;;;16.92;14.13;;;16.30;99.90;;;;;;5096114;27;20040;-46
2022/09/07 06:18:13;;;;;;;16.52;13.75;;;16.40;99.90;;;;;;5096259;27;20052;-46
2022/09/07 06:20:39;;;;;;;18.77;15.10;;;16.50;99.90;;;;;;5097565;27;20043;-46
2022/09/07 06:23:06;;;;;;;21.55;17.80;;;16.50;99.90;;;;;;5096758;27;20039;-49
2022/09/07 06:25:32;;;;;;;22.42;17.85;;;16.30;99.90;;;;;;5095556;27;20321;-48
2022/09/07 06:27:58;;;;;;;19.77;17.58;;;16.50;99.90;;;;;;5095742;28;20131;-45
2022/09/07 06:30:24;;;;;;;20.42;17.08;;;16.50;99.90;;;;;;5096110;27;20048;-49
2022/09/07 06:32:50;;;;;;;21.58;16.63;;;16.40;99.90;;;;;;5095665;28;20066;-49
2022/09/07 06:35:16;;;;;;;22.58;18.02;;;16.60;99.90;;;;;;5095717;27;20170;-45
2022/09/07 06:37:42;;;;;;;18.52;16.25;;;16.50;99.90;;;;;;5096136;28;20031;-46
2022/09/07 06:40:10;;;;;;;23.77;21.05;;;16.60;99.90;;;;;;5097256;27;20063;-47
2022/09/07 06:42:36;;;;;;;24.17;19.33;;;16.50;99.90;;;;;;5096135;27;20096;-45
2022/09/07 06:45:02;;;;;;;26.80;20.85;;;16.50;99.90;;;;;;5096063;27;20043;-46
2022/09/07 06:47:28;;;;;;;20.85;18.85;;;16.50;99.90;;;;;;5095861;27;20155;-47
2022/09/07 06:49:54;;;;;;;22.23;19.85;;;16.40;99.90;;;;;;5096683;27;20052;-46
2022/09/07 06:52:19;;;;;;;33.80;24.48;;;16.70;99.90;;;;;;5095486;27;20043;-48
2022/09/07 06:54:45;;;;;;;26.35;23.27;;;16.60;99.90;;;;;;5095359;27;20377;-47
2022/09/07 06:57:11;;;;;;;33.22;26.00;;;16.50;99.90;;;;;;5095659;28;20052;-45
2022/09/07 06:59:37;;;;;;;33.55;26.00;;;16.50;99.90;;;;;;5095614;27;20036;-48
2022/09/07 07:02:04;;;;;;;31.17;26.60;;;16.50;99.90;;;;;;5092840;27;20080;-51
2022/09/07 07:04:30;;;;;;;33.03;29.48;;;16.40;99.90;;;;;;5093342;27;20186;-49
2022/09/07 07:06:55;;;;;;;31.65;26.58;;;16.60;99.90;;;;;;5094439;27;20507;-49
2022/09/07 07:09:21;;;;;;;28.67;24.98;;;16.40;99.90;;;;;;5094989;27;20100;-49
2022/09/07 07:11:47;;;;;;;29.73;26.45;;;16.60;99.90;;;;;;5095533;27;20046;-48
2022/09/07 07:14:16;;;;;;;30.25;26.67;;;16.50;99.90;;;;;;5095940;28;20040;-48
2022/09/07 07:16:43;;;;;;;30.95;27.30;;;16.70;99.90;;;;;;5095024;27;20438;-46
2022/09/07 07:19:09;;;;;;;29.63;26.33;;;16.60;99.90;;;;;;5094726;27;20130;-47
2022/09/07 07:21:35;;;;;;;34.10;28.52;;;16.60;99.90;;;;;;5094642;27;20108;-50
2022/09/07 07:24:01;;;;;;;31.20;26.35;;;16.50;99.90;;;;;;5093008;28;20194;-46
2022/09/07 07:26:27;;;;;;;30.75;26.50;;;16.60;99.90;;;;;;5093975;28;20108;-46
2022/09/07 07:28:54;;;;;;;40.08;30.65;;;16.50;99.90;;;;;;5091711;27;20098;-48
2022/09/07 07:31:22;;;;;;;30.73;27.25;;;16.60;99.90;;;;;;5093882;27;20407;-46
2022/09/07 07:33:49;;;;;;;28.92;25.52;;;16.70;99.90;;;;;;5094322;27;20300;-48
2022/09/07 07:36:19;;;;;;;30.73;26.85;;;16.70;99.90;;;;;;5093082;27;20043;-49
2022/09/07 07:38:47;;;;;;;28.85;25.75;;;16.70;99.90;;;;;;5095337;27;20054;-47
2022/09/07 07:41:14;;;;;;;28.67;25.67;;;16.70;99.90;;;;;;5096224;28;20474;-45
2022/09/07 07:43:40;;;;;;;27.90;24.38;;;16.80;99.90;;;;;;5093943;27;20391;-48
2022/09/07 07:46:06;;;;;;;30.10;27.00;;;16.70;99.90;;;;;;5094804;27;20035;-47
2022/09/07 07:48:33;;;;;;;32.38;26.75;;;16.70;99.90;;;;;;5094612;27;20054;-46
2022/09/07 07:51:05;;;;;;;29.55;26.45;;;17.10;99.90;;;;;;5093872;27;20048;-47
2022/09/07 07:53:33;;;;;;;30.40;26.63;;;17.00;99.90;;;;;;5094472;27;20035;-49
2022/09/07 07:56:00;;;;;;;30.75;25.05;;;17.20;99.90;;;;;;5094762;28;20527;-46
2022/09/07 07:58:27;;;;;;;30.92;26.40;;;17.30;99.90;;;;;;5094755;27;20050;-46
2022/09/07 08:01:04;;;;;;;34.67;29.30;;;17.40;99.90;;;;;;5092854;28;20581;-47
2022/09/07 08:03:34;;;;;;;28.42;25.60;;;18.20;99.90;;;;;;5095433;27;20396;-49
2022/09/07 08:06:20;;;;;;;34.42;28.25;;;17.40;99.90;;;;;;5095268;27;20047;-48
2022/09/07 08:08:46;;;;;;;32.30;25.73;;;17.50;99.90;;;;;;5096264;27;20054;-46
2022/09/07 08:11:18;;;;;;;32.92;28.80;;;17.40;99.90;;;;;;5096323;27;20066;-49
2022/09/07 08:13:45;;;;;;;37.83;28.73;;;17.60;99.90;;;;;;5094399;27;20572;-46
2022/09/07 08:16:12;;;;;;;35.17;28.98;;;17.60;99.90;;;;;;5095474;27;20671;-48
2022/09/07 08:18:38;;;;;;;31.30;28.02;;;17.70;99.90;;;;;;5094813;27;20147;-46
2022/09/07 08:21:11;;;;;;;35.65;28.75;;;17.50;99.90;;;;;;5095395;27;20036;-46
2022/09/07 08:23:37;;;;;;;34.28;27.90;;;17.70;99.90;;;;;;5095336;27;20031;-47
2022/09/07 08:26:04;;;;;;;37.80;31.17;;;17.70;99.90;;;;;;5094403;27;20071;-48
2022/09/07 08:28:32;;;;;;;35.17;27.45;;;17.60;99.90;;;;;;5094364;28;20116;-47
2022/09/07 08:30:58;;;;;;;33.05;28.15;;;17.80;99.90;;;;;;5095133;28;20060;-48
2022/09/07 08:33:24;;;;;;;34.88;28.80;;;17.80;99.90;;;;;;5093176;27;20132;-48
2022/09/07 08:35:58;;;;;;;31.63;28.15;;;18.00;99.90;;;;;;5093153;28;20104;-46
2022/09/07 08:38:24;;;;;;;29.73;26.58;;;18.20;99.90;;;;;;5094248;27;20043;-47
2022/09/07 08:40:50;;;;;;;29.60;25.52;;;18.50;99.90;;;;;;5095052;27;20047;-50
2022/09/07 08:43:48;;;;;;;28.27;25.00;;;18.40;99.90;;;;;;5094067;28;20137;-45
2022/09/07 08:46:30;;;;;;;28.27;25.25;;;18.50;99.90;;;;;;5093215;28;20035;-46
2022/09/07 08:48:58;;;;;;;32.53;26.30;;;18.40;99.90;;;;;;5092343;28;20452;-48
2022/09/07 08:51:43;;;;;;;21.52;19.27;;;18.50;99.90;;;;;;5093048;28;20056;-45
2022/09/07 08:54:13;;;;;;;22.83;20.40;;;18.50;99.90;;;;;;5092939;27;20343;-45
2022/09/07 08:56:47;;;;;;;29.42;21.80;;;18.60;99.90;;;;;;5091245;27;20294;-44
2022/09/07 08:59:19;;;;;;;26.67;23.98;;;18.80;99.90;;;;;;5092928;28;20035;-46
2022/09/07 09:01:45;;;;;;;;;;;18.70;99.90;;;;;;5092806;28;20105;-45
2022/09/07 09:04:16;;;;;;;24.67;20.45;;;18.60;99.90;;;;;;5093107;27;19950;-46
2022/09/07 09:07:08;;;;;;;25.73;20.13;;;18.80;99.90;;;;;;5092669;27;20066;-45
2022/09/07 09:09:34;;;;;;;23.02;19.83;;;19.00;99.90;;;;;;5092718;27;20051;-45
2022/09/07 09:12:12;;;;;;;17.60;15.68;;;19.00;99.90;;;;;;5093838;28;20048;-48
2022/09/07 09:14:58;;;;;;;14.50;13.00;;;19.20;99.90;;;;;;5092613;28;20047;-47
2022/09/07 09:17:43;;;;;;;16.45;14.48;;;19.10;99.90;;;;;;5077479;28;20573;-45
2022/09/07 09:20:18;;;;;;;14.40;13.00;;;19.20;99.90;;;;;;5092543;28;20689;-45
2022/09/07 09:22:44;;;;;;;14.00;12.32;;;19.50;99.90;;;;;;5092568;28;20373;-47
2022/09/07 09:25:20;;;;;;;16.67;13.23;;;19.50;99.90;;;;;;5096504;27;20518;-46
2022/09/07 09:27:47;;;;;;;14.40;11.95;;;19.70;99.90;;;;;;5096898;27;20130;-47
2022/09/07 09:30:14;;;;;;;13.63;11.63;;;19.70;99.90;;;;;;5097926;27;20039;-45
2022/09/07 09:32:42;;;;;;;13.70;11.65;;;19.90;99.90;;;;;;5096593;27;20089;-49
2022/09/07 09:35:34;;;;;;;12.02;10.82;;;19.90;99.90;;;;;;5097078;27;20452;-47
2022/09/07 09:38:03;;;;;;;14.10;11.52;;;20.20;99.90;;;;;;5093814;27;20264;-44
2022/09/07 09:40:30;;;;;;;13.40;10.82;;;20.50;99.90;;;;;;5098046;27;20118;-48
2022/09/07 09:43:20;;;;;;;12.50;8.73;;;20.60;99.90;;;;;;5098361;27;20094;-46
2022/09/07 09:45:52;;;;;;;12.35;9.80;;;20.40;99.90;;;;;;5096962;27;20138;-51
2022/09/07 09:48:25;;;;;;;10.23;8.20;;;20.40;99.90;;;;;;5097000;28;20032;-44
2022/09/07 09:50:54;;;;;;;11.15;8.68;;;20.30;99.90;;;;;;5096945;27;20473;-47
2022/09/07 09:53:31;;;;;;;11.88;9.00;;;20.30;99.90;;;;;;5097457;28;20059;-45
2022/09/07 09:56:02;;;;;;;14.13;8.70;;;20.20;99.90;;;;;;5096721;27;20104;-46
2022/09/07 09:58:31;;;;;;;11.70;9.13;;;20.50;99.90;;;;;;5097993;27;20071;-48
2022/09/07 10:01:06;;;;;;;11.55;8.98;;;20.20;99.90;;;;;;5096161;27;20042;-46
2022/09/07 10:03:33;;;;;;;9.75;8.55;;;20.40;99.90;;;;;;5097726;27;20051;-49
2022/09/07 10:06:02;;;;;;;9.25;6.65;;;20.40;99.90;;;;;;5098894;27;20080;-47
2022/09/07 10:08:30;;;;;;;10.15;6.75;;;20.80;99.90;;;;;;5098753;27;20055;-45
2022/09/07 10:11:03;;;;;;;9.45;7.03;;;21.20;99.90;;;;;;5099347;27;20031;-47
2022/09/07 10:13:34;;;;;;;8.82;6.30;;;21.30;99.90;;;;;;5098165;27;20109;-50
2022/09/07 10:16:06;;;;;;;8.45;5.90;;;21.60;99.90;;;;;;5097458;27;20039;-50
2022/09/07 10:18:38;;;;;;;8.45;5.53;;;21.80;99.90;;;;;;5098279;27;20040;-46
2022/09/07 10:21:13;;;;;;;8.75;5.90;;;22.10;99.90;;;;;;5096811;27;20078;-49
2022/09/07 10:23:39;;;;;;;7.35;6.00;;;22.20;99.90;;;;;;5096486;28;20078;-49
2022/09/07 10:26:30;;;;;;;8.07;5.82;;;22.40;99.90;;;;;;5096629;27;20043;-49
2022/09/07 10:29:34;;;;;;;6.97;5.20;;;22.60;99.90;;;;;;5095876;27;20059;-46
2022/09/07 10:32:25;;;;;;;7.50;4.75;;;22.70;99.90;;;;;;5094996;27;20963;-46
2022/09/07 10:35:12;;;;;;;7.32;4.40;;;22.70;99.90;;;;;;5096591;27;20088;-45
2022/09/07 10:38:01;;;;;;;6.05;4.35;;;22.70;99.90;;;;;;5096311;28;20556;-48
2022/09/07 10:40:34;;;;;;;8.57;4.55;;;23.00;99.90;;;;;;5096411;27;20044;-47
2022/09/07 10:43:09;;;;;;;7.45;3.78;;;23.30;99.90;;;;;;5098825;27;20074;-47
2022/09/07 10:46:12;;;;;;;5.07;3.15;;;23.50;99.90;;;;;;5097484;27;20422;-46
2022/09/07 10:48:49;;;;;;;4.85;2.90;;;23.60;99.90;;;;;;5096762;27;20433;-51
2022/09/07 10:51:27;;;;;;;5.13;2.92;;;24.10;99.90;;;;;;5127938;27;20606;-48
2022/09/07 10:54:05;;;;;;;5.18;2.75;;;23.90;99.90;;;;;;5097321;28;20415;-48
2022/09/07 10:57:09;;;;;;;4.13;2.00;;;24.00;99.90;;;;;;5096264;27;20499;-48
2022/09/07 10:59:50;;;;;;;4.90;2.03;;;23.90;99.90;;;;;;5094766;27;20399;-50
2022/09/07 11:02:41;;;;;;;4.05;1.92;;;24.30;99.90;;;;;;5097665;27;20043;-50
2022/09/07 11:05:13;;;;;;;4.27;1.97;;;24.20;99.90;;;;;;5097435;27;20031;-47
2022/09/07 11:08:17;;;;;;;;;;;24.20;99.90;;;;;;5097777;27;20453;-49
2022/09/07 11:10:55;;;;;;;2.88;1.55;;;24.20;99.90;;;;;;5073146;28;20390;-48
2022/09/07 11:13:25;;;;;;;3.22;1.77;;;24.40;99.90;;;;;;5073789;28;20738;-51
2022/09/07 11:15:58;;;;;;;3.58;1.65;;;24.60;99.90;;;;;;5086546;28;20055;-50
2022/09/07 11:18:46;;;;;;;3.90;1.80;;;24.90;99.90;;;;;;5096643;28;20407;-49
2022/09/07 11:21:16;;;;;;;5.50;2.15;;;25.00;99.90;;;;;;5097404;27;20064;-49
2022/09/07 11:24:12;;;;;;;5.03;1.67;;;25.20;99.90;;;;;;5096430;27;20066;-48
2022/09/07 11:26:52;;;;;;;2.08;1.20;;;25.00;99.90;;;;;;5095166;28;24026;-47
2022/09/07 11:29:35;;;;;;;3.00;1.40;;;25.00;99.90;;;;;;5095339;28;20065;-50
2022/09/07 11:32:07;;;;;;;5.68;1.70;;;25.00;99.90;;;;;;5096456;27;20043;-50
2022/09/07 11:34:39;;;;;;;2.85;1.50;;;25.30;99.90;;;;;;5093965;28;20082;-49
2022/09/07 11:37:19;;;;;;;3.42;1.23;;;25.30;99.90;;;;;;5094868;27;20157;-46
2022/09/07 11:40:01;;;;;;;2.35;1.20;;;25.20;99.90;;;;;;5094766;28;20062;-51
2022/09/07 11:42:45;;;;;;;;;;;25.40;99.90;;;;;;5096201;27;20048;-47
2022/09/07 11:45:16;;;;;;;3.08;1.27;;;25.00;99.90;;;;;;5095421;27;19928;-47
2022/09/07 11:47:46;;;;;;;3.50;1.50;;;24.90;99.90;;;;;;5094839;27;20151;-49
2022/09/07 11:50:18;;;;;;;5.15;1.60;;;25.10;99.90;;;;;;5095569;28;20065;-50
2022/09/07 11:53:05;;;;;;;3.72;1.20;;;25.10;99.90;;;;;;5095920;27;20040;-49
2022/09/07 11:55:37;;;;;;;2.72;1.15;;;25.00;99.90;;;;;;5095975;27;20073;-50
2022/09/07 11:58:17;;;;;;;2.92;1.60;;;24.80;99.90;;;;;;5096461;27;20047;-50
2022/09/07 12:01:08;;;;;;;3.75;1.50;;;24.50;99.90;;;;;;5127553;27;20051;-52
2022/09/07 12:03:47;;;;;;;4.70;1.92;;;24.30;99.90;;;;;;5094717;28;20370;-50
2022/09/07 12:06:22;;;;;;;4.07;1.48;;;24.00;99.90;;;;;;5096399;27;20039;-51
2022/09/07 12:08:55;;;;;;;3.10;1.55;;;22.30;99.90;;;;;;5095605;27;20044;-48
2022/09/07 12:11:51;;;;;;;6.10;1.70;;;24.10;99.90;;;;;;5095327;27;20032;-48
2022/09/07 12:14:20;;;;;;;4.70;1.60;;;23.90;99.90;;;;;;5095474;28;20043;-48
2022/09/07 12:17:06;;;;;;;4.82;2.28;;;24.00;99.90;;;;;;5094883;27;20400;-47
2022/09/07 12:19:31;;;;;;;3.30;1.50;;;24.00;99.90;;;;;;5094462;27;20054;-48
2022/09/07 12:22:01;;;;;;;3.28;1.60;;;23.90;99.90;;;;;;5096076;28;20282;-48
2022/09/07 12:24:35;;;;;;;3.33;1.58;;;23.90;99.90;;;;;;5096159;27;20055;-48
2022/09/07 12:27:04;;;;;;;4.78;1.80;;;24.00;99.90;;;;;;5094824;28;20081;-49
2022/09/07 12:29:30;;;;;;;5.18;1.40;;;24.20;99.90;;;;;;5096064;27;20040;-50
2022/09/07 12:31:59;;;;;;;3.88;1.50;;;24.60;99.90;;;;;;5094971;27;20043;-51
2022/09/07 12:34:31;;;;;;;3.55;1.50;;;24.70;99.90;;;;;;5093881;28;20127;-49
2022/09/07 12:37:01;;;;;;;4.07;1.70;;;25.00;99.90;;;;;;5094819;27;20101;-48
2022/09/07 12:39:29;;;;;;;4.05;1.50;;;25.00;99.90;;;;;;5093564;28;20046;-48
2022/09/07 12:42:03;;;;;;;3.85;1.50;;;25.00;99.90;;;;;;5093855;28;20044;-50
2022/09/07 12:44:30;;;;;;;3.03;1.30;;;24.90;99.90;;;;;;5094185;27;20044;-50
2022/09/07 12:46:57;;;;;;;4.03;1.38;;;25.20;99.90;;;;;;5092351;27;20036;-49
2022/09/07 12:49:29;;;;;;;2.60;1.10;;;25.30;99.90;;;;;;5092152;27;20078;-50
2022/09/07 12:52:11;;;;;;;3.38;1.75;;;25.40;99.90;;;;;;5093419;27;20621;-50
2022/09/07 12:55:07;;;;;;;3.35;1.50;;;25.40;99.90;;;;;;5094462;28;20035;-47
2022/09/07 12:58:00;;;;;;;2.78;1.15;;;25.50;99.90;;;;;;5092108;27;20048;-47
2022/09/07 13:00:42;;;;;;;3.95;1.20;;;24.90;99.90;;;;;;5093759;28;20039;-50